Time;durP1;ratioP1;P1;durP2;ratioP2;P2;SDS_P1;SDS_P2;PMS_P1;PMS_P2;Temp;Humidity;BMP_temperature;BMP_pressure;BME280_temperature;BME280_humidity;BME280_pressure;Samples;Min_cycle;Max_cycle;Signal;HPM_P1;HPM_P2
2022/10/02 00:01:34;;;;;;;14.75;3.05;;;11.90;99.90;;;;;;5050975;28;20025;-65
2022/10/02 00:04:01;;;;;;;13.02;2.67;;;11.90;99.90;;;;;;5051148;28;20033;-64
2022/10/02 00:06:35;;;;;;;9.38;3.22;;;11.90;99.90;;;;;;5050263;28;20056;-71
2022/10/02 00:09:03;;;;;;;9.15;3.03;;;11.90;99.90;;;;;;5049327;28;20029;-64
2022/10/02 00:11:57;;;;;;;10.98;3.00;;;11.90;99.90;;;;;;5050361;28;20086;-68
2022/10/02 00:14:27;;;;;;;11.05;2.90;;;11.90;99.90;;;;;;5049725;28;20119;-68
2022/10/02 00:16:56;;;;;;;5.75;2.40;;;11.90;99.90;;;;;;5049193;28;20035;-65
2022/10/02 00:19:22;;;;;;;8.98;3.13;;;11.90;99.90;;;;;;5049248;28;20048;-65
2022/10/02 00:22:35;;;;;;;13.05;2.95;;;11.80;99.90;;;;;;5049500;28;20037;-65
2022/10/02 00:25:01;;;;;;;11.07;2.88;;;11.80;99.90;;;;;;5041321;28;20036;-64
2022/10/02 00:27:39;;;;;;;8.73;2.45;;;11.80;99.90;;;;;;5050614;28;20025;-71
2022/10/02 00:30:09;;;;;;;8.18;3.20;;;11.80;99.90;;;;;;5050794;28;20036;-65
2022/10/02 00:33:11;;;;;;;6.35;3.10;;;11.80;99.90;;;;;;5049475;28;20056;-64
2022/10/02 00:35:43;;;;;;;6.95;2.60;;;11.80;99.90;;;;;;5049501;28;20029;-65
2022/10/02 00:38:30;;;;;;;8.52;2.70;;;11.80;99.90;;;;;;5050667;28;20025;-63
2022/10/02 00:41:14;;;;;;;10.73;2.47;;;11.80;99.90;;;;;;5050082;28;20763;-65
2022/10/02 00:44:12;;;;;;;11.65;2.88;;;11.80;99.90;;;;;;5049622;28;20041;-64
2022/10/02 00:46:54;;;;;;;7.30;2.80;;;11.80;99.90;;;;;;5047881;28;20039;-64
2022/10/02 00:49:38;;;;;;;15.00;2.72;;;11.80;99.90;;;;;;5050308;28;20028;-65
2022/10/02 00:52:13;;;;;;;10.07;3.05;;;11.80;99.90;;;;;;5050154;28;20386;-65
2022/10/02 00:55:20;;;;;;;10.60;2.92;;;11.80;99.90;;;;;;5049446;28;20033;-64
2022/10/02 00:57:57;;;;;;;9.23;3.03;;;11.90;99.90;;;;;;5049095;28;20098;-66
2022/10/02 01:00:23;;;;;;;8.98;2.85;;;11.90;99.90;;;;;;5050272;28;20029;-65
2022/10/02 01:03:03;;;;;;;15.13;2.95;;;11.90;99.90;;;;;;5048783;28;20122;-65
2022/10/02 01:05:29;;;;;;;10.32;3.10;;;12.00;99.90;;;;;;5050214;28;20025;-65
2022/10/02 01:07:56;;;;;;;13.93;2.72;;;12.00;99.90;;;;;;5049298;28;20432;-66
2022/10/02 01:10:26;;;;;;;8.40;2.83;;;11.90;99.90;;;;;;5049876;28;20116;-66
2022/10/02 01:12:53;;;;;;;8.65;2.80;;;12.00;99.90;;;;;;5049319;28;20029;-65
2022/10/02 01:15:22;;;;;;;10.80;2.50;;;11.90;99.90;;;;;;5048574;28;20386;-64
2022/10/02 01:17:50;;;;;;;10.00;2.90;;;12.00;99.90;;;;;;5049032;28;20025;-66
2022/10/02 01:20:23;;;;;;;9.48;2.72;;;11.90;99.90;;;;;;5049597;28;20053;-67
2022/10/02 01:23:11;;;;;;;12.10;2.67;;;11.90;99.90;;;;;;5048400;28;20042;-69
2022/10/02 01:25:37;;;;;;;8.80;2.47;;;11.90;99.90;;;;;;5048284;28;20025;-66
2022/10/02 01:28:04;;;;;;;15.43;2.70;;;11.90;99.90;;;;;;5048238;28;20040;-67
2022/10/02 01:30:31;;;;;;;7.45;2.72;;;11.80;99.90;;;;;;5049608;28;20033;-67
2022/10/02 01:33:00;;;;;;;9.00;2.83;;;11.80;99.90;;;;;;5049228;28;20052;-66
2022/10/02 01:35:32;;;;;;;13.98;2.92;;;11.80;99.90;;;;;;5049680;28;20059;-65
2022/10/02 01:38:00;;;;;;;8.20;2.92;;;11.90;99.90;;;;;;5049164;28;20033;-65
2022/10/02 01:40:32;;;;;;;6.55;2.72;;;11.90;99.90;;;;;;5049581;28;20378;-65
2022/10/02 01:43:27;;;;;;;6.93;2.92;;;11.90;99.90;;;;;;5049184;28;20040;-64
2022/10/02 01:45:58;;;;;;;6.38;2.83;;;11.90;99.90;;;;;;5048273;28;20146;-67
2022/10/02 01:48:46;;;;;;;4.95;2.63;;;11.90;99.90;;;;;;5049595;28;20025;-65
2022/10/02 01:51:29;;;;;;;7.57;2.40;;;11.90;99.90;;;;;;5049634;28;20428;-66
2022/10/02 01:54:11;;;;;;;10.25;2.80;;;11.90;99.90;;;;;;5048775;28;20032;-66
2022/10/02 01:56:50;;;;;;;7.20;2.35;;;11.90;99.90;;;;;;5048398;28;20051;-66
2022/10/02 01:59:48;;;;;;;10.15;2.28;;;11.80;99.90;;;;;;5048238;28;20544;-66
2022/10/02 02:02:30;;;;;;;10.80;2.83;;;11.80;99.90;;;;;;5048662;28;20095;-64
2022/10/02 02:05:35;;;;;;;8.85;2.50;;;11.80;99.90;;;;;;5048475;28;20024;-67
2022/10/02 02:08:08;;;;;;;8.35;2.50;;;11.80;99.90;;;;;;5047908;28;20076;-66
2022/10/02 02:10:59;;;;;;;6.07;2.58;;;11.90;99.90;;;;;;5049069;28;20079;-68
2022/10/02 02:13:30;;;;;;;;;;;11.80;99.90;;;;;;5050077;28;20048;-66
2022/10/02 02:16:05;;;;;;;7.78;2.60;;;11.90;99.90;;;;;;5048542;28;19908;-65
2022/10/02 02:18:49;;;;;;;8.20;2.58;;;11.90;99.90;;;;;;5049591;28;20033;-65
2022/10/02 02:21:30;;;;;;;8.10;2.58;;;11.90;99.90;;;;;;5049219;28;20049;-65
2022/10/02 02:24:00;;;;;;;11.18;2.42;;;11.90;99.90;;;;;;5048535;28;20025;-66
2022/10/02 02:26:27;;;;;;;5.68;2.50;;;11.80;99.90;;;;;;5049204;28;20079;-66
2022/10/02 02:28:58;;;;;;;13.23;2.80;;;11.90;99.90;;;;;;5046914;28;20055;-66
2022/10/02 02:31:28;;;;;;;7.90;2.50;;;11.90;99.90;;;;;;5048927;28;20028;-66
2022/10/02 02:33:58;;;;;;;13.48;2.95;;;11.90;99.90;;;;;;5048448;28;20029;-65
2022/10/02 02:36:30;;;;;;;9.40;2.92;;;11.90;99.90;;;;;;5049155;28;20025;-65
2022/10/02 02:39:03;;;;;;;6.10;2.38;;;12.00;99.90;;;;;;5048129;28;20060;-67
2022/10/02 02:41:37;;;;;;;11.25;2.42;;;11.90;99.90;;;;;;5049120;28;20043;-65
2022/10/02 02:44:20;;;;;;;5.43;2.17;;;12.00;99.90;;;;;;5048855;28;20029;-65
2022/10/02 02:47:03;;;;;;;16.23;2.72;;;12.00;99.90;;;;;;5048260;28;20029;-66
2022/10/02 02:49:52;;;;;;;9.27;2.15;;;12.00;99.90;;;;;;5048937;28;20057;-65
2022/10/02 02:52:23;;;;;;;10.63;2.75;;;12.00;99.90;;;;;;5048809;28;20041;-65
2022/10/02 02:54:53;;;;;;;9.55;2.42;;;12.00;99.90;;;;;;5048211;28;20057;-64
2022/10/02 02:57:29;;;;;;;7.22;2.40;;;12.00;99.90;;;;;;5049589;28;20029;-65
2022/10/02 02:59:58;;;;;;;6.00;2.58;;;12.00;99.90;;;;;;5051864;28;20294;-65
2022/10/02 03:02:23;;;;;;;7.35;2.70;;;12.00;99.90;;;;;;5052381;28;20128;-65
2022/10/02 03:04:49;;;;;;;12.10;2.38;;;12.00;99.90;;;;;;5051322;28;20096;-66
2022/10/02 03:07:16;;;;;;;11.10;2.35;;;12.00;99.90;;;;;;5052557;28;20040;-64
2022/10/02 03:10:07;;;;;;;13.05;2.05;;;11.90;99.90;;;;;;5051462;28;20040;-64
2022/10/02 03:13:29;;;;;;;14.82;2.80;;;12.00;99.90;;;;;;5051230;28;20033;-65
2022/10/02 03:16:35;;;;;;;9.27;2.17;;;12.00;99.90;;;;;;5028285;28;20067;-66
2022/10/02 03:19:15;;;;;;;10.52;2.42;;;12.00;99.90;;;;;;5028469;28;20233;-66
2022/10/02 03:21:49;;;;;;;11.30;2.75;;;12.00;99.90;;;;;;5050111;28;20045;-70
2022/10/02 03:24:40;;;;;;;8.77;2.25;;;12.10;99.90;;;;;;5052005;28;20120;-65
2022/10/02 03:27:19;;;;;;;11.10;3.25;;;12.00;99.90;;;;;;5051457;28;20035;-66
2022/10/02 03:30:20;;;;;;;7.38;2.40;;;12.00;99.90;;;;;;5051071;28;20072;-67
2022/10/02 03:32:50;;;;;;;9.80;2.60;;;12.00;99.90;;;;;;5050151;28;20121;-67
2022/10/02 03:35:17;;;;;;;10.65;2.50;;;12.00;99.90;;;;;;5051864;28;20116;-66
2022/10/02 03:37:52;;;;;;;12.73;2.60;;;12.00;99.90;;;;;;5050680;28;20385;-66
2022/10/02 03:40:25;;;;;;;10.55;2.50;;;12.00;99.90;;;;;;5051887;28;20462;-65
2022/10/02 03:42:51;;;;;;;9.55;2.55;;;12.00;99.90;;;;;;5050755;28;20080;-65
2022/10/02 03:45:18;;;;;;;7.38;2.55;;;12.00;99.90;;;;;;5051508;28;20040;-66
2022/10/02 03:47:43;;;;;;;11.63;2.75;;;12.10;99.90;;;;;;5051013;28;20029;-68
2022/10/02 03:50:12;;;;;;;9.48;2.80;;;12.10;99.90;;;;;;5051511;28;20033;-65
2022/10/02 03:52:37;;;;;;;17.80;2.80;;;12.00;99.90;;;;;;5051438;28;20040;-64
2022/10/02 03:55:13;;;;;;;9.98;2.90;;;12.10;99.90;;;;;;5050649;28;20055;-65
2022/10/02 03:57:39;;;;;;;8.50;2.63;;;12.10;99.90;;;;;;5051059;28;20141;-66
2022/10/02 04:00:25;;;;;;;10.93;2.90;;;12.10;99.90;;;;;;5050786;28;20120;-66
2022/10/02 04:03:06;;;;;;;11.80;2.92;;;12.00;99.90;;;;;;5050517;28;20112;-66
2022/10/02 04:05:47;;;;;;;8.63;3.10;;;12.00;99.90;;;;;;5051392;28;20032;-66
2022/10/02 04:08:19;;;;;;;9.13;2.45;;;12.00;99.90;;;;;;5051147;28;20128;-66
2022/10/02 04:11:23;;;;;;;12.52;3.00;;;12.00;99.90;;;;;;5050261;28;20378;-67
2022/10/02 04:14:05;;;;;;;11.75;2.80;;;12.00;99.90;;;;;;5038673;28;20420;-65
2022/10/02 04:16:39;;;;;;;11.82;2.80;;;12.00;99.90;;;;;;5051066;28;20539;-67
2022/10/02 04:19:11;;;;;;;7.20;2.22;;;12.00;99.90;;;;;;5048581;28;20037;-66
2022/10/02 04:21:42;;;;;;;8.15;2.65;;;12.00;99.90;;;;;;5050811;28;20064;-66
2022/10/02 04:24:25;;;;;;;9.90;2.72;;;12.00;99.90;;;;;;5050352;28;20017;-65
2022/10/02 04:27:06;;;;;;;12.52;2.47;;;12.10;99.90;;;;;;5049814;28;20029;-67
2022/10/02 04:29:41;;;;;;;5.38;2.10;;;12.00;99.90;;;;;;5050612;28;20495;-66
2022/10/02 04:32:14;;;;;;;10.32;2.72;;;12.00;99.90;;;;;;5049782;28;20075;-64
2022/10/02 04:34:41;;;;;;;8.52;2.58;;;12.00;99.90;;;;;;5050685;28;20029;-66
2022/10/02 04:37:28;;;;;;;13.00;2.75;;;12.00;99.90;;;;;;5049661;28;20389;-64
2022/10/02 04:40:28;;;;;;;8.98;2.70;;;12.00;99.90;;;;;;5049880;28;20040;-64
2022/10/02 04:43:26;;;;;;;12.43;2.67;;;12.10;99.90;;;;;;5027339;28;20081;-66
2022/10/02 04:46:20;;;;;;;8.95;2.67;;;12.10;99.90;;;;;;5049635;28;20470;-66
2022/10/02 04:49:13;;;;;;;20.00;3.72;;;12.10;99.90;;;;;;5049632;28;20763;-70
2022/10/02 04:52:23;;;;;;;7.72;2.53;;;12.10;99.90;;;;;;5048923;28;20033;-65
2022/10/02 04:55:25;;;;;;;10.82;2.65;;;12.10;99.90;;;;;;5049356;28;20497;-65
2022/10/02 04:58:19;;;;;;;9.70;2.78;;;12.10;99.90;;;;;;5049195;28;20469;-65
2022/10/02 05:01:05;;;;;;;13.88;2.90;;;12.20;99.90;;;;;;5048608;28;20698;-71
2022/10/02 05:04:04;;;;;;;13.18;2.70;;;12.20;99.90;;;;;;5049576;28;20052;-67
2022/10/02 05:06:40;;;;;;;15.20;2.85;;;12.10;99.90;;;;;;5050138;28;20029;-64
2022/10/02 05:09:11;;;;;;;12.57;2.50;;;12.10;99.90;;;;;;5049271;28;20017;-67
2022/10/02 05:11:51;;;;;;;14.10;2.67;;;12.20;99.90;;;;;;5048796;28;20033;-65
2022/10/02 05:14:43;;;;;;;15.43;2.83;;;12.10;99.90;;;;;;5048720;28;20385;-66
2022/10/02 05:17:30;;;;;;;12.88;2.80;;;12.10;99.90;;;;;;5049250;28;20457;-63
2022/10/02 05:20:34;;;;;;;10.95;3.00;;;12.10;99.90;;;;;;5047400;28;20056;-66
2022/10/02 05:23:03;;;;;;;12.57;2.75;;;12.20;99.90;;;;;;5047278;28;20053;-67
2022/10/02 05:25:54;;;;;;;11.10;2.50;;;12.10;99.90;;;;;;5049526;28;20025;-63
2022/10/02 05:28:42;;;;;;;11.70;2.17;;;12.10;99.90;;;;;;5049604;28;20032;-64
2022/10/02 05:31:29;;;;;;;9.75;2.33;;;12.10;99.90;;;;;;5048464;28;20016;-65
2022/10/02 05:34:00;;;;;;;9.98;2.13;;;12.10;99.90;;;;;;5048608;28;20151;-64
2022/10/02 05:36:58;;;;;;;8.05;2.22;;;12.10;99.90;;;;;;5049312;28;20120;-65
2022/10/02 05:39:29;;;;;;;15.63;2.50;;;12.00;99.90;;;;;;5049712;28;20017;-65
2022/10/02 05:42:12;;;;;;;9.88;2.60;;;12.00;99.90;;;;;;5048457;28;20124;-67
2022/10/02 05:44:42;;;;;;;6.82;2.17;;;12.00;99.90;;;;;;5049368;28;20017;-64
2022/10/02 05:47:17;;;;;;;;;;;12.00;99.90;;;;;;5049206;28;20020;-66
2022/10/02 05:49:55;;;;;;;18.30;2.67;;;12.00;99.90;;;;;;5049251;28;20319;-65
2022/10/02 05:52:34;;;;;;;9.82;2.30;;;12.00;99.90;;;;;;5049576;28;20057;-65
2022/10/02 05:55:18;;;;;;;14.70;2.60;;;12.00;99.90;;;;;;5047549;28;20083;-64
2022/10/02 05:57:53;;;;;;;9.23;2.22;;;12.00;99.90;;;;;;5049203;28;20224;-64
2022/10/02 06:00:23;;;;;;;13.25;2.30;;;12.00;99.90;;;;;;5049163;28;20095;-64
2022/10/02 06:03:00;;;;;;;13.07;2.33;;;12.00;99.90;;;;;;5048832;28;20037;-69
2022/10/02 06:05:36;;;;;;;12.65;2.40;;;12.00;99.90;;;;;;5049350;28;20029;-66
2022/10/02 06:08:05;;;;;;;11.38;2.05;;;12.00;99.90;;;;;;5048425;28;20040;-63
2022/10/02 06:10:37;;;;;;;11.43;2.15;;;11.90;99.90;;;;;;5049141;28;20108;-66
2022/10/02 06:13:45;;;;;;;5.40;2.00;;;11.90;99.90;;;;;;5048584;28;20028;-66
2022/10/02 06:16:34;;;;;;;6.18;1.73;;;11.90;99.90;;;;;;5025824;28;20051;-64
2022/10/02 06:19:06;;;;;;;9.75;1.83;;;11.90;99.90;;;;;;5047380;28;20041;-64
2022/10/02 06:21:38;;;;;;;10.15;1.52;;;11.80;99.90;;;;;;5047845;28;20040;-66
2022/10/02 06:24:14;;;;;;;8.00;1.60;;;11.80;99.90;;;;;;5048469;28;20479;-65
2022/10/02 06:26:55;;;;;;;5.88;1.30;;;11.70;99.90;;;;;;5047971;28;20025;-63
2022/10/02 06:29:30;;;;;;;8.70;1.48;;;11.80;99.90;;;;;;5048916;28;20470;-67
2022/10/02 06:32:16;;;;;;;6.97;1.30;;;11.70;99.90;;;;;;5049176;28;20688;-66
2022/10/02 06:34:44;;;;;;;6.03;1.33;;;11.70;99.90;;;;;;5051744;28;20127;-65
2022/10/02 06:37:22;;;;;;;9.57;1.58;;;11.70;99.90;;;;;;5051204;28;20096;-65
2022/10/02 06:39:57;;;;;;;7.03;1.73;;;11.70;99.90;;;;;;5053345;28;20525;-64
2022/10/02 06:42:35;;;;;;;7.53;1.60;;;11.70;99.90;;;;;;5052940;28;20035;-65
2022/10/02 06:45:25;;;;;;;6.20;1.65;;;11.70;99.90;;;;;;5051979;28;20079;-66
2022/10/02 06:48:00;;;;;;;6.70;2.00;;;11.80;99.90;;;;;;5052486;28;20029;-70
2022/10/02 06:50:40;;;;;;;7.07;1.75;;;11.80;99.90;;;;;;5052722;28;20469;-65
2022/10/02 06:53:13;;;;;;;11.30;1.88;;;11.80;99.90;;;;;;5051573;28;20053;-66
2022/10/02 06:56:06;;;;;;;10.77;1.73;;;11.80;99.90;;;;;;5052945;28;20127;-65
2022/10/02 06:58:47;;;;;;;16.23;2.25;;;11.80;99.90;;;;;;5052695;28;20032;-63
2022/10/02 07:01:23;;;;;;;9.00;1.98;;;11.80;99.90;;;;;;5051471;28;20029;-65
2022/10/02 07:04:13;;;;;;;7.18;2.10;;;11.90;99.90;;;;;;5052529;28;20486;-64
2022/10/02 07:07:00;;;;;;;6.60;1.95;;;11.90;99.90;;;;;;5051133;28;20438;-65
2022/10/02 07:09:41;;;;;;;4.95;1.88;;;11.90;99.90;;;;;;5052099;28;20456;-69
2022/10/02 07:12:27;;;;;;;11.38;2.08;;;11.90;99.90;;;;;;5051573;28;20470;-66
2022/10/02 07:15:25;;;;;;;5.68;1.98;;;11.90;99.90;;;;;;5051571;28;20087;-70
2022/10/02 07:17:59;;;;;;;12.70;1.95;;;12.00;99.90;;;;;;5052282;28;20108;-66
2022/10/02 07:20:28;;;;;;;6.28;2.25;;;12.00;99.90;;;;;;5051506;28;20443;-66
2022/10/02 07:23:11;;;;;;;6.47;1.88;;;12.00;99.90;;;;;;5051542;28;20037;-68
2022/10/02 07:25:57;;;;;;;6.55;2.20;;;12.10;99.90;;;;;;5052084;28;20025;-66
2022/10/02 07:28:54;;;;;;;6.68;2.00;;;12.10;99.90;;;;;;5051671;28;20037;-65
2022/10/02 07:31:44;;;;;;;10.70;2.25;;;12.10;99.90;;;;;;5051269;28;20084;-65
2022/10/02 07:34:13;;;;;;;7.93;2.05;;;12.10;99.90;;;;;;5051190;28;20057;-65
2022/10/02 07:37:02;;;;;;;6.97;2.00;;;12.10;99.90;;;;;;5051893;28;20024;-66
2022/10/02 07:39:48;;;;;;;6.00;2.00;;;12.20;99.90;;;;;;5051078;28;20040;-66
2022/10/02 07:42:20;;;;;;;7.65;1.95;;;12.20;99.90;;;;;;5050599;28;20035;-66
2022/10/02 07:45:14;;;;;;;6.13;2.22;;;12.20;99.90;;;;;;5049764;28;20532;-66
2022/10/02 07:47:46;;;;;;;6.18;1.88;;;12.20;99.90;;;;;;5050719;28;20041;-65
2022/10/02 07:50:26;;;;;;;9.07;2.15;;;12.20;99.90;;;;;;5050745;28;20131;-66
2022/10/02 07:52:58;;;;;;;4.45;1.60;;;12.20;99.90;;;;;;5051136;28;20036;-67
2022/10/02 07:55:25;;;;;;;3.58;1.75;;;12.20;99.90;;;;;;5050469;28;20044;-65
2022/10/02 07:58:12;;;;;;;5.93;1.98;;;12.20;99.90;;;;;;5051267;28;20032;-66
2022/10/02 08:00:44;;;;;;;7.70;2.50;;;12.30;99.90;;;;;;5050815;28;20385;-66
2022/10/02 08:03:42;;;;;;;6.95;2.70;;;12.40;99.90;;;;;;5050325;28;20434;-64
2022/10/02 08:06:08;;;;;;;3.42;1.52;;;12.40;99.90;;;;;;5041259;28;20108;-65
2022/10/02 08:08:52;;;;;;;8.75;3.20;;;12.40;99.90;;;;;;5051358;28;20482;-65
2022/10/02 08:11:24;;;;;;;3.60;2.00;;;12.50;99.90;;;;;;5050470;28;20021;-65
2022/10/02 08:14:27;;;;;;;3.40;1.48;;;12.50;99.90;;;;;;5050857;28;20036;-66
2022/10/02 08:16:57;;;;;;;9.75;1.95;;;12.50;99.90;;;;;;5050997;28;20029;-65
2022/10/02 08:19:42;;;;;;;4.45;1.40;;;12.50;99.90;;;;;;5050273;28;20056;-64
2022/10/02 08:22:27;;;;;;;4.43;1.88;;;12.50;99.90;;;;;;5050095;28;20041;-64
2022/10/02 08:25:03;;;;;;;4.60;1.75;;;12.50;99.90;;;;;;5050328;28;20048;-66
2022/10/02 08:27:50;;;;;;;4.50;1.50;;;12.50;99.90;;;;;;5050903;28;20016;-65
2022/10/02 08:30:16;;;;;;;3.30;1.50;;;12.50;99.90;;;;;;5049900;28;20086;-64
2022/10/02 08:32:42;;;;;;;5.07;1.98;;;12.50;99.90;;;;;;5050639;28;20068;-66
2022/10/02 08:35:12;;;;;;;3.45;1.85;;;12.50;99.90;;;;;;5049711;28;20029;-63
2022/10/02 08:38:19;;;;;;;6.03;1.88;;;12.50;99.90;;;;;;5050535;28;20032;-64
2022/10/02 08:41:23;;;;;;;8.68;2.72;;;12.40;99.90;;;;;;5048379;28;20116;-65
2022/10/02 08:43:48;;;;;;;6.78;2.80;;;12.50;99.90;;;;;;5050430;28;20068;-64
2022/10/02 08:47:07;;;;;;;3.95;2.08;;;12.40;99.90;;;;;;5049469;28;20059;-65
2022/10/02 08:49:58;;;;;;;5.63;2.03;;;12.40;99.90;;;;;;5027038;28;20052;-65
2022/10/02 08:52:47;;;;;;;2.95;1.52;;;12.40;99.90;;;;;;5049785;28;20040;-64
2022/10/02 08:55:22;;;;;;;3.30;1.63;;;12.40;99.90;;;;;;5028302;28;20441;-64
2022/10/02 08:57:51;;;;;;;4.47;1.60;;;12.40;99.90;;;;;;5030473;28;20029;-64
2022/10/02 09:00:31;;;;;;;3.10;2.00;;;12.40;99.90;;;;;;5029619;28;20394;-66
2022/10/02 09:03:23;;;;;;;3.92;1.98;;;12.50;99.90;;;;;;5044963;28;20428;-66
2022/10/02 09:06:08;;;;;;;3.60;2.13;;;12.50;99.90;;;;;;5046784;28;20091;-66
2022/10/02 09:08:39;;;;;;;5.30;2.42;;;12.50;99.90;;;;;;5050353;28;20052;-65
2022/10/02 09:11:44;;;;;;;4.32;2.13;;;12.70;99.90;;;;;;5049143;28;20233;-65
2022/10/02 09:14:33;;;;;;;5.00;2.25;;;12.60;99.90;;;;;;5047865;28;20041;-63
2022/10/02 09:17:29;;;;;;;4.78;2.63;;;12.60;99.90;;;;;;5049404;28;20373;-70
2022/10/02 09:20:10;;;;;;;7.70;2.67;;;12.60;99.90;;;;;;5049679;28;20140;-67
2022/10/02 09:22:55;;;;;;;3.85;2.30;;;12.70;99.90;;;;;;5049881;28;20473;-65
2022/10/02 09:25:37;;;;;;;4.88;2.53;;;12.70;99.90;;;;;;5047809;28;20098;-65
2022/10/02 09:28:30;;;;;;;12.98;3.30;;;12.60;99.90;;;;;;5049225;28;20068;-69
2022/10/02 09:31:29;;;;;;;4.03;2.80;;;12.60;99.90;;;;;;5049333;28;20033;-66
2022/10/02 09:34:32;;;;;;;6.03;3.05;;;12.60;99.90;;;;;;5049319;28;20044;-65
2022/10/02 09:37:16;;;;;;;5.93;2.90;;;12.70;99.90;;;;;;5050038;28;20111;-64
2022/10/02 09:40:24;;;;;;;7.43;3.53;;;12.70;99.90;;;;;;5049701;28;20110;-65
2022/10/02 09:43:05;;;;;;;8.73;4.20;;;12.70;99.90;;;;;;5049725;28;20120;-65
2022/10/02 09:45:54;;;;;;;7.38;3.78;;;12.90;99.90;;;;;;5048946;28;20029;-66
2022/10/02 09:48:32;;;;;;;7.75;3.63;;;13.00;99.90;;;;;;5048060;28;20039;-66
2022/10/02 09:51:39;;;;;;;7.13;3.85;;;13.00;99.90;;;;;;5049751;28;20040;-66
2022/10/02 09:54:23;;;;;;;13.32;5.18;;;13.10;99.90;;;;;;5049124;28;20381;-70
2022/10/02 09:57:18;;;;;;;12.02;5.45;;;13.10;99.90;;;;;;5049183;28;20029;-64
2022/10/02 09:59:51;;;;;;;8.48;3.67;;;13.00;99.90;;;;;;5049574;28;20117;-65
2022/10/02 10:02:16;;;;;;;8.30;3.20;;;13.10;99.90;;;;;;5048749;28;20074;-66
2022/10/02 10:05:20;;;;;;;4.63;2.58;;;13.00;99.90;;;;;;5049591;28;20056;-65
2022/10/02 10:08:13;;;;;;;4.93;3.00;;;12.90;99.90;;;;;;5053064;28;20037;-66
2022/10/02 10:10:49;;;;;;;4.05;2.15;;;13.00;99.90;;;;;;5053126;28;20025;-65
2022/10/02 10:13:31;;;;;;;2.55;1.40;;;12.90;99.90;;;;;;5052587;28;20107;-66
2022/10/02 10:16:34;;;;;;;2.47;1.83;;;13.00;99.90;;;;;;5053375;28;20475;-66
2022/10/02 10:19:45;;;;;;;1.35;0.90;;;13.10;99.90;;;;;;5053108;28;20068;-66
2022/10/02 10:22:50;;;;;;;5.35;0.80;;;13.20;99.90;;;;;;5052461;28;20541;-65
2022/10/02 10:25:53;;;;;;;0.70;0.57;;;13.20;99.90;;;;;;5052384;28;20033;-65
2022/10/02 10:28:18;;;;;;;1.00;0.60;;;13.20;99.90;;;;;;5052704;28;20033;-64
2022/10/02 10:31:18;;;;;;;0.95;0.40;;;13.20;99.90;;;;;;5052835;28;20032;-64
2022/10/02 10:34:04;;;;;;;0.63;0.30;;;13.20;99.90;;;;;;5052993;28;20082;-71
2022/10/02 10:39:39;;;;;;;0.68;0.50;;;13.30;99.90;;;;;;5051804;28;20044;-65
2022/10/02 10:42:05;;;;;;;0.85;0.50;;;13.20;99.90;;;;;;5052273;28;20282;-68
2022/10/02 10:44:38;;;;;;;1.08;0.50;;;13.30;99.90;;;;;;5052616;28;20044;-64
2022/10/02 10:47:33;;;;;;;0.68;0.30;;;13.20;99.90;;;;;;5052565;28;20103;-69
2022/10/02 10:50:34;;;;;;;2.63;1.05;;;13.30;99.90;;;;;;5052507;28;20121;-64
2022/10/02 10:53:35;;;;;;;1.20;0.57;;;13.40;99.90;;;;;;5052803;28;20470;-66
2022/10/02 10:56:18;;;;;;;1.55;0.68;;;13.30;99.90;;;;;;5051893;28;20872;-64
2022/10/02 10:59:05;;;;;;;1.10;0.80;;;13.40;99.90;;;;;;5052646;28;20029;-65
2022/10/02 11:02:01;;;;;;;3.15;2.03;;;13.40;99.90;;;;;;5051984;28;20470;-66
2022/10/02 11:04:37;;;;;;;1.88;1.30;;;13.30;99.90;;;;;;5051718;28;20033;-64
2022/10/02 11:07:44;;;;;;;15.70;9.35;;;13.30;99.90;;;;;;5052484;28;20021;-64
2022/10/02 11:10:29;;;;;;;2.80;1.67;;;13.40;99.90;;;;;;5049603;28;20028;-66
2022/10/02 11:13:14;;;;;;;2.40;1.83;;;13.50;99.90;;;;;;5051074;28;20036;-66
2022/10/02 11:16:01;;;;;;;2.65;2.00;;;13.60;99.90;;;;;;5052076;28;20035;-66
2022/10/02 11:18:58;;;;;;;2.13;0.90;;;13.60;99.90;;;;;;5050294;28;20628;-67
2022/10/02 11:21:55;;;;;;;0.35;0.20;;;13.50;99.90;;;;;;5050816;28;20048;-64
2022/10/02 11:24:59;;;;;;;0.03;0.00;;;13.50;99.90;;;;;;5051416;28;20094;-66
2022/10/02 11:27:32;;;;;;;0.57;0.20;;;13.60;99.90;;;;;;5051373;28;20380;-66
2022/10/02 11:30:01;;;;;;;2.45;0.22;;;13.60;99.90;;;;;;5052161;28;20377;-66
2022/10/02 11:32:58;;;;;;;2.08;1.20;;;13.60;99.90;;;;;;5051336;28;20649;-66
2022/10/02 11:36:08;;;;;;;2.35;1.00;;;13.60;99.90;;;;;;5051281;28;20021;-67
2022/10/02 11:39:06;;;;;;;0.57;0.32;;;13.70;99.90;;;;;;5050445;28;20028;-65
2022/10/02 11:41:48;;;;;;;2.67;0.30;;;13.70;99.90;;;;;;5027976;28;20041;-66
2022/10/02 11:44:33;;;;;;;0.38;0.20;;;13.70;99.90;;;;;;5051087;28;20039;-66
2022/10/02 11:47:16;;;;;;;2.30;0.40;;;13.70;99.90;;;;;;5051841;28;20111;-65
2022/10/02 11:50:00;;;;;;;3.50;1.70;;;13.60;99.90;;;;;;5051646;28;20063;-66
2022/10/02 11:52:39;;;;;;;1.35;0.70;;;13.60;99.90;;;;;;5050849;28;20035;-68
2022/10/02 11:55:32;;;;;;;2.92;0.40;;;13.70;99.90;;;;;;5051705;28;20029;-66
2022/10/02 11:58:12;;;;;;;1.33;0.60;;;13.60;99.90;;;;;;5051356;28;20029;-64
2022/10/02 12:00:54;;;;;;;2.20;0.52;;;13.60;99.90;;;;;;5051018;28;20508;-66
2022/10/02 12:03:54;;;;;;;1.38;0.40;;;13.60;99.90;;;;;;5050339;28;20029;-65
2022/10/02 12:06:47;;;;;;;1.70;0.60;;;13.60;99.90;;;;;;5043279;28;20041;-64
2022/10/02 12:09:41;;;;;;;0.73;0.32;;;13.60;99.90;;;;;;5050940;28;20021;-69
2022/10/02 12:12:18;;;;;;;0.68;0.38;;;13.60;99.90;;;;;;5051410;28;20067;-66
2022/10/02 12:15:10;;;;;;;5.13;2.00;;;13.80;99.90;;;;;;5051348;28;20021;-64
2022/10/02 12:17:54;;;;;;;2.50;1.60;;;14.00;99.90;;;;;;5050586;28;20037;-65
2022/10/02 12:26:57;;;;;;;2.30;1.30;;;14.10;99.90;;;;;;5040719;28;20107;-65
2022/10/02 12:29:32;;;;;;;3.58;1.67;;;14.00;99.90;;;;;;5050168;28;20064;-65
2022/10/02 12:32:07;;;;;;;1.63;1.00;;;14.00;99.90;;;;;;5050730;28;20029;-64
2022/10/02 12:35:05;;;;;;;0.65;0.40;;;14.10;99.90;;;;;;5050280;28;20013;-65
2022/10/02 12:38:03;;;;;;;0.60;0.38;;;14.20;99.90;;;;;;5050398;28;20025;-64
2022/10/02 12:41:07;;;;;;;0.82;0.47;;;14.10;99.90;;;;;;5048400;28;20032;-66
2022/10/02 12:44:02;;;;;;;0.68;0.40;;;14.00;99.90;;;;;;5030059;28;20117;-66
2022/10/02 12:46:47;;;;;;;3.78;1.67;;;14.00;99.90;;;;;;5049890;28;20363;-65
2022/10/02 12:49:24;;;;;;;3.20;0.82;;;14.10;99.90;;;;;;5050237;28;20157;-69
2022/10/02 12:52:04;;;;;;;2.63;1.25;;;14.10;99.90;;;;;;5050607;28;20112;-64
2022/10/02 12:54:32;;;;;;;2.10;0.40;;;14.00;99.90;;;;;;5049191;28;20028;-66
2022/10/02 13:00:13;;;;;;;0.35;0.22;;;14.10;99.90;;;;;;5050280;28;20393;-64
2022/10/02 13:03:17;;;;;;;0.25;0.20;;;14.00;99.90;;;;;;5050061;28;20025;-65
2022/10/02 13:05:50;;;;;;;0.35;0.20;;;14.00;99.90;;;;;;5049989;28;20374;-64
2022/10/02 13:08:38;;;;;;;1.30;0.15;;;13.90;99.90;;;;;;5048382;28;20495;-70
2022/10/02 13:11:26;;;;;;;0.60;0.30;;;13.90;99.90;;;;;;5050283;28;20472;-65
2022/10/02 13:14:15;;;;;;;1.48;0.15;;;13.90;99.90;;;;;;5049926;28;20495;-64
2022/10/02 13:16:43;;;;;;;2.28;0.30;;;13.90;99.90;;;;;;5049680;28;20048;-66
2022/10/02 13:19:39;;;;;;;0.90;0.30;;;13.80;99.90;;;;;;5049875;28;20075;-65
2022/10/02 13:22:12;;;;;;;0.17;0.10;;;13.80;99.90;;;;;;5050069;28;21976;-66
2022/10/02 13:25:13;;;;;;;0.25;0.00;;;13.70;99.90;;;;;;5049558;28;20051;-66
2022/10/02 13:27:49;;;;;;;1.30;0.10;;;13.60;99.90;;;;;;5049674;28;20025;-66
2022/10/02 13:30:22;;;;;;;0.63;0.10;;;13.40;99.90;;;;;;5049790;28;20078;-72
2022/10/02 13:33:05;;;;;;;0.45;0.20;;;13.40;99.90;;;;;;5049851;28;20029;-66
2022/10/02 13:35:37;;;;;;;0.30;0.20;;;13.50;99.90;;;;;;5048829;28;20443;-66
2022/10/02 13:38:18;;;;;;;1.15;0.68;;;13.40;99.90;;;;;;5050018;28;20025;-66
2022/10/02 13:40:50;;;;;;;;;;;13.30;99.90;;;;;;5049697;28;20078;-66
2022/10/02 13:43:24;;;;;;;0.75;0.20;;;13.40;99.90;;;;;;5049647;28;20380;-69
2022/10/02 13:46:16;;;;;;;3.75;1.20;;;13.40;99.90;;;;;;5049889;28;20029;-66
2022/10/02 13:48:41;;;;;;;1.33;0.40;;;13.30;99.90;;;;;;5049397;28;20033;-66
2022/10/02 13:51:35;;;;;;;1.13;0.20;;;13.40;99.90;;;;;;5049774;28;20036;-67
2022/10/02 13:54:01;;;;;;;0.40;0.10;;;13.40;99.90;;;;;;5048427;28;20029;-66
2022/10/02 13:56:58;;;;;;;2.53;0.20;;;13.40;99.90;;;;;;5048872;28;20021;-65
2022/10/02 13:59:40;;;;;;;0.47;0.20;;;13.40;99.90;;;;;;5048812;28;20489;-65
2022/10/02 14:02:28;;;;;;;0.40;0.20;;;13.40;99.90;;;;;;5049293;28;20094;-66
2022/10/02 14:05:10;;;;;;;0.32;0.17;;;13.50;99.90;;;;;;5049401;28;20029;-65
2022/10/02 14:07:58;;;;;;;0.60;0.32;;;13.50;99.90;;;;;;5048698;28;20633;-65
2022/10/02 14:10:29;;;;;;;0.70;0.17;;;13.50;99.90;;;;;;5048813;28;20025;-65
2022/10/02 14:13:02;;;;;;;0.22;0.10;;;13.40;99.90;;;;;;5048325;28;20131;-64
2022/10/02 14:15:42;;;;;;;0.40;0.20;;;13.40;99.90;;;;;;5048960;28;20025;-64